createdAt,value
2022-08-17T00:00:05.822Z,18.59
2022-08-17T00:02:38.311Z,18.74
2022-08-17T00:05:09.893Z,18.82
2022-08-17T00:07:36.626Z,18.90
2022-08-17T00:10:03.857Z,18.95
2022-08-17T00:12:41.280Z,18.99
2022-08-17T00:15:13.406Z,19.08
2022-08-17T00:17:42.402Z,19.16
2022-08-17T00:20:11.160Z,19.20
2022-08-17T00:22:37.989Z,19.20
2022-08-17T00:25:08.265Z,19.21
2022-08-17T00:27:35.804Z,18.91
2022-08-17T00:30:03.283Z,18.89
2022-08-17T00:33:16.005Z,18.97
2022-08-17T00:35:25.438Z,19.00
2022-08-17T00:37:52.658Z,19.05
2022-08-17T00:40:20.593Z,19.04
2022-08-17T00:42:48.538Z,19.10
2022-08-17T00:45:17.656Z,19.17
2022-08-17T00:47:44.434Z,19.16
2022-08-17T00:50:14.236Z,19.11
2022-08-17T00:52:50.763Z,19.13
2022-08-17T00:55:18.587Z,19.16
2022-08-17T00:57:53.359Z,19.24
2022-08-17T01:00:44.329Z,19.24
2022-08-17T01:03:15.393Z,19.27
2022-08-17T01:05:44.896Z,19.32
2022-08-17T01:08:15.365Z,19.26
2022-08-17T01:10:59.652Z,18.81
2022-08-17T01:13:36.748Z,18.90
2022-08-17T01:16:16.191Z,19.01
2022-08-17T01:18:45.656Z,19.13
2022-08-17T01:21:22.845Z,19.18
2022-08-17T01:23:49.756Z,19.27
2022-08-17T01:26:16.773Z,19.31
2022-08-17T01:28:55.320Z,19.35
2022-08-17T01:31:24.851Z,19.33
2022-08-17T01:33:53.928Z,19.38
2022-08-17T01:36:23.412Z,19.45
2022-08-17T01:38:50.205Z,19.49
2022-08-17T01:41:18.930Z,19.53
2022-08-17T01:43:55.247Z,19.57
2022-08-17T01:46:27.249Z,19.44
2022-08-17T01:48:56.449Z,19.23
2022-08-17T01:51:26.589Z,19.32
2022-08-17T01:53:58.146Z,19.39
2022-08-17T01:56:26.488Z,19.47
2022-08-17T01:58:53.968Z,19.58
2022-08-17T02:01:24.847Z,19.60
2022-08-17T02:03:59.226Z,19.76
2022-08-17T02:06:29.727Z,19.84
2022-08-17T02:09:03.296Z,19.89
2022-08-17T02:11:34.319Z,19.95
2022-08-17T02:14:03.679Z,20.02
2022-08-17T02:16:36.651Z,19.83
2022-08-17T02:19:08.299Z,19.79
2022-08-17T02:21:37.288Z,19.90
2022-08-17T02:24:07.070Z,20.00
2022-08-17T02:26:35.246Z,20.08
2022-08-17T02:29:02.141Z,20.14
2022-08-17T02:31:31.259Z,20.20
2022-08-17T02:34:04.564Z,20.23
2022-08-17T02:36:36.946Z,20.27
2022-08-17T02:39:08.339Z,20.30
2022-08-17T02:41:38.933Z,20.31
2022-08-17T02:44:06.914Z,20.34
2022-08-17T02:46:33.582Z,20.39
2022-08-17T02:49:00.340Z,20.41
2022-08-17T02:51:27.709Z,20.45
2022-08-17T02:54:39.097Z,20.44
2022-08-17T02:56:41.393Z,20.13
2022-08-17T02:59:08.871Z,20.04
2022-08-17T03:01:36.951Z,20.16
2022-08-17T03:04:03.921Z,20.25
2022-08-17T03:06:31.881Z,20.32
2022-08-17T03:08:58.784Z,20.41
2022-08-17T03:11:25.599Z,20.41
2022-08-17T03:13:52.430Z,20.43
2022-08-17T03:16:19.089Z,20.43
2022-08-17T03:18:46.057Z,20.47
2022-08-17T03:21:12.837Z,20.52
2022-08-17T03:23:41.507Z,20.56
2022-08-17T03:26:12.368Z,20.57
2022-08-17T03:28:42.893Z,20.62
2022-08-17T03:31:09.781Z,20.63
2022-08-17T03:33:36.524Z,20.58
2022-08-17T03:36:03.534Z,20.59
2022-08-17T03:38:30.346Z,20.28
2022-08-17T03:41:07.645Z,20.15
2022-08-17T03:43:34.868Z,20.24
2022-08-17T03:46:26.997Z,20.29
2022-08-17T03:49:14.280Z,20.29
2022-08-17T03:51:59.572Z,20.32
2022-08-17T03:54:44.949Z,20.39
2022-08-17T03:57:11.830Z,20.38
2022-08-17T03:59:40.856Z,20.42
2022-08-17T04:02:17.799Z,20.37
2022-08-17T04:04:44.914Z,20.29
2022-08-17T04:07:12.074Z,20.06
2022-08-17T04:09:38.768Z,20.08
2022-08-17T04:12:05.758Z,20.20
2022-08-17T04:14:51.392Z,20.24
2022-08-17T04:17:24.940Z,20.28
2022-08-17T04:19:52.483Z,20.31
2022-08-17T04:22:32.508Z,20.34
2022-08-17T04:25:14.425Z,20.42
2022-08-17T04:27:41.165Z,20.48
2022-08-17T04:30:08.706Z,20.48
2022-08-17T04:33:15.644Z,20.56
2022-08-17T04:35:51.389Z,20.40
2022-08-17T04:38:21.382Z,20.25
2022-08-17T04:41:07.413Z,20.37
2022-08-17T04:43:35.785Z,20.45
2022-08-17T04:46:09.776Z,20.49
2022-08-17T04:48:43.242Z,20.52
2022-08-17T04:51:18.405Z,20.56
2022-08-17T04:53:53.891Z,20.57
2022-08-17T04:56:24.561Z,20.58
2022-08-17T04:58:58.401Z,20.62
2022-08-17T05:01:28.258Z,20.61
2022-08-17T05:03:59.079Z,20.65
2022-08-17T05:06:27.801Z,20.42
2022-08-17T05:08:55.573Z,20.35
2022-08-17T05:11:26.150Z,20.45
2022-08-17T05:13:54.885Z,20.53
2022-08-17T05:16:24.015Z,20.62
2022-08-17T05:18:51.091Z,20.61
2022-08-17T05:21:18.201Z,20.67
2022-08-17T05:23:47.214Z,20.76
2022-08-17T05:26:26.038Z,20.77
2022-08-17T05:28:55.315Z,20.82
2022-08-17T05:31:24.427Z,20.85
2022-08-17T05:33:53.467Z,20.84
2022-08-17T05:36:41.933Z,20.88
2022-08-17T05:39:07.241Z,20.87
2022-08-17T05:41:34.096Z,20.68
2022-08-17T05:44:00.774Z,20.51
2022-08-17T05:46:39.308Z,20.60
2022-08-17T05:49:11.220Z,20.67
2022-08-17T05:52:02.092Z,20.78
2022-08-17T05:54:43.883Z,20.88
2022-08-17T05:57:39.509Z,20.97
2022-08-17T06:00:20.221Z,21.10
2022-08-17T06:03:39.644Z,20.79
2022-08-17T06:06:17.168Z,20.79
2022-08-17T06:09:03.040Z,20.86
2022-08-17T06:11:32.559Z,20.72
2022-08-17T06:14:22.823Z,20.79
2022-08-17T06:16:58.718Z,20.68
2022-08-17T06:19:33.059Z,20.78
2022-08-17T06:22:00.160Z,20.72
2022-08-17T06:24:42.121Z,20.66
2022-08-17T06:27:27.742Z,20.80
2022-08-17T06:30:11.533Z,20.66
2022-08-17T06:32:41.979Z,20.77
2022-08-17T06:35:11.720Z,20.79
2022-08-17T06:37:55.452Z,20.71
2022-08-17T06:40:37.748Z,20.85
2022-08-17T06:43:13.847Z,20.69
2022-08-17T06:45:58.752Z,20.84
2022-08-17T06:48:29.740Z,20.76
2022-08-17T06:51:03.322Z,20.77
2022-08-17T06:53:52.175Z,20.95
2022-08-17T06:56:53.713Z,20.90
2022-08-17T06:59:34.747Z,20.87
2022-08-17T07:02:29.399Z,21.00
2022-08-17T07:05:12.524Z,20.88
2022-08-17T07:08:03.641Z,21.04
2022-08-17T07:10:59.332Z,21.01
2022-08-17T07:13:36.001Z,21.14
2022-08-17T07:16:15.840Z,21.12
2022-08-17T07:18:43.913Z,21.12
2022-08-17T07:21:41.699Z,21.28
2022-08-17T07:24:33.615Z,21.16
2022-08-17T07:27:10.401Z,21.32
2022-08-17T07:29:47.073Z,21.35
2022-08-17T07:32:32.018Z,21.33
2022-08-17T07:35:11.453Z,21.40
2022-08-17T07:37:46.729Z,21.24
2022-08-17T07:40:24.278Z,21.43
2022-08-17T07:43:06.119Z,21.36
2022-08-17T07:45:54.121Z,21.49
2022-08-17T07:48:25.958Z,21.49
2022-08-17T07:50:53.329Z,21.49
2022-08-17T07:53:24.310Z,21.71
2022-08-17T07:55:53.005Z,21.61
2022-08-17T07:58:24.154Z,21.64
2022-08-17T08:01:23.966Z,21.79
2022-08-17T08:04:59.323Z,21.73
2022-08-17T08:07:30.463Z,21.91
2022-08-17T08:10:28.380Z,21.79
2022-08-17T08:13:08.752Z,21.90
2022-08-17T08:15:53.902Z,21.85
2022-08-17T08:18:38.704Z,21.86
2022-08-17T08:21:29.165Z,21.94
2022-08-17T08:24:17.052Z,21.88
2022-08-17T08:26:50.120Z,22.01
2022-08-17T08:29:46.115Z,21.93
2022-08-17T08:32:40.710Z,21.96
2022-08-17T08:35:22.675Z,22.01
2022-08-17T08:38:14.831Z,21.86
2022-08-17T08:41:19.329Z,22.03
2022-08-17T08:44:08.166Z,21.92
2022-08-17T08:46:52.431Z,22.01
2022-08-17T08:49:45.060Z,22.17
2022-08-17T08:52:31.081Z,21.98
2022-08-17T08:55:24.798Z,22.16
2022-08-17T08:58:06.817Z,22.12
2022-08-17T09:00:40.520Z,22.21
2022-08-17T09:03:51.912Z,22.26
2022-08-17T09:06:49.518Z,22.14
2022-08-17T09:09:27.284Z,22.23
2022-08-17T09:12:15.339Z,22.27
2022-08-17T09:14:49.504Z,22.53
2022-08-17T09:17:20.757Z,22.56
2022-08-17T09:20:00.208Z,22.66
2022-08-17T09:22:42.741Z,22.67
2022-08-17T09:25:15.429Z,22.79
2022-08-17T09:27:42.124Z,23.01
2022-08-17T09:30:12.003Z,22.98
2022-08-17T09:32:50.036Z,23.14
2022-08-17T09:35:22.949Z,23.24
2022-08-17T09:38:21.730Z,23.30
2022-08-17T09:41:09.548Z,23.42
2022-08-17T09:43:56.750Z,23.38
2022-08-17T09:46:38.788Z,23.52
2022-08-17T09:49:16.223Z,23.57
2022-08-17T09:51:53.215Z,23.69
2022-08-17T09:54:44.378Z,23.79
2022-08-17T09:57:30.247Z,23.83
2022-08-17T10:00:13.262Z,23.86
2022-08-17T10:02:48.335Z,23.63
2022-08-17T10:05:23.299Z,23.58
2022-08-17T10:08:12.992Z,23.35
2022-08-17T10:11:08.674Z,23.13
2022-08-17T10:13:52.948Z,23.29
2022-08-17T10:16:32.124Z,23.56
2022-08-17T10:19:30.483Z,23.84
2022-08-17T10:22:35.329Z,23.88
2022-08-17T10:25:27.799Z,23.86
2022-08-17T10:28:12.955Z,23.71
2022-08-17T10:31:01.418Z,23.72
2022-08-17T10:34:01.783Z,23.89
2022-08-17T10:36:55.166Z,23.96
2022-08-17T10:39:30.738Z,24.10
2022-08-17T10:42:03.955Z,24.21
2022-08-17T10:44:51.790Z,24.25
2022-08-17T10:47:19.561Z,24.21
2022-08-17T10:49:54.331Z,24.16
2022-08-17T10:52:22.091Z,24.17
2022-08-17T10:54:51.479Z,24.21
2022-08-17T10:57:27.579Z,24.31
2022-08-17T10:59:58.440Z,24.47
2022-08-17T11:02:41.360Z,24.52
2022-08-17T11:05:11.308Z,24.22
2022-08-17T11:07:58.608Z,24.08
2022-08-17T11:10:51.983Z,24.14
2022-08-17T11:13:40.753Z,23.71
2022-08-17T11:16:32.698Z,23.73
2022-08-17T11:19:21.286Z,23.65
2022-08-17T11:22:12.760Z,23.50
2022-08-17T11:24:45.438Z,23.58
2022-08-17T11:27:22.283Z,23.45
2022-08-17T11:30:01.498Z,23.39
2022-08-17T11:32:34.535Z,23.57
2022-08-17T11:35:21.917Z,23.57
2022-08-17T11:38:14.017Z,23.46
2022-08-17T11:40:51.768Z,23.53
2022-08-17T11:43:29.307Z,23.44
2022-08-17T11:46:20.466Z,23.30
2022-08-17T11:49:11.687Z,23.47
2022-08-17T11:52:01.020Z,23.38
2022-08-17T11:54:32.666Z,23.36
2022-08-17T11:57:21.633Z,23.55
2022-08-17T11:59:49.684Z,23.55
2022-08-17T12:02:31.704Z,23.60
2022-08-17T12:05:27.607Z,23.72
2022-08-17T12:08:21.685Z,23.62
2022-08-17T12:11:02.099Z,23.61
2022-08-17T12:13:38.721Z,23.72
2022-08-17T12:16:09.460Z,23.58
2022-08-17T12:18:39.734Z,23.62
2022-08-17T12:21:26.696Z,23.58
2022-08-17T12:24:16.630Z,23.28
2022-08-17T12:26:52.080Z,23.33
2022-08-17T12:29:38.845Z,23.37
2022-08-17T12:32:07.267Z,23.20
2022-08-17T12:34:40.809Z,23.29
2022-08-17T12:37:15.327Z,23.18
2022-08-17T12:39:57.143Z,23.05
2022-08-17T12:42:31.303Z,23.14
2022-08-17T12:44:58.876Z,22.94
2022-08-17T12:47:26.551Z,23.03
2022-08-17T12:50:08.308Z,23.19
2022-08-17T12:52:59.714Z,23.03
2022-08-17T12:55:32.551Z,22.92
2022-08-17T12:58:02.138Z,23.04
2022-08-17T13:00:40.035Z,23.11
2022-08-17T13:03:19.876Z,23.05
2022-08-17T13:05:52.465Z,23.16
2022-08-17T13:08:26.944Z,23.23
2022-08-17T13:10:59.611Z,23.05
2022-08-17T13:13:31.972Z,22.96
2022-08-17T13:16:00.684Z,23.17
2022-08-17T13:18:36.164Z,23.34
2022-08-17T13:21:02.868Z,23.15
2022-08-17T13:23:31.351Z,23.15
2022-08-17T13:26:06.399Z,23.34
2022-08-17T13:28:36.040Z,23.31
2022-08-17T13:31:32.964Z,23.16
2022-08-17T13:34:26.730Z,23.36
2022-08-17T13:37:32.821Z,23.39
2022-08-17T13:40:08.266Z,23.08
2022-08-17T13:42:52.455Z,23.20
2022-08-17T13:45:35.344Z,23.30
2022-08-17T13:48:14.807Z,23.25
2022-08-17T13:50:48.288Z,23.32
2022-08-17T13:53:23.754Z,23.46
2022-08-17T13:55:53.272Z,23.49
2022-08-17T13:58:33.272Z,23.39
2022-08-17T14:01:35.385Z,23.50
2022-08-17T14:04:09.305Z,23.53
2022-08-17T14:06:52.154Z,23.27
2022-08-17T14:09:24.136Z,23.47
2022-08-17T14:11:52.955Z,23.46
2022-08-17T14:14:21.855Z,23.38
2022-08-17T14:16:48.917Z,23.64
2022-08-17T14:19:17.742Z,23.87
2022-08-17T14:21:46.485Z,23.84
2022-08-17T14:24:23.292Z,23.85
2022-08-17T14:26:52.388Z,23.61
2022-08-17T14:29:23.968Z,23.50
2022-08-17T14:31:53.283Z,23.61
2022-08-17T14:34:22.436Z,23.39
2022-08-17T14:36:49.113Z,23.49
2022-08-17T14:39:17.673Z,23.83
2022-08-17T14:41:45.105Z,23.95
2022-08-17T14:44:14.904Z,24.26
2022-08-17T14:46:43.780Z,24.68
2022-08-17T14:49:14.501Z,24.75
2022-08-17T14:51:43.969Z,25.09
2022-08-17T14:54:29.384Z,25.13
2022-08-17T14:57:04.638Z,25.17
2022-08-17T14:59:49.202Z,25.22
2022-08-17T15:02:29.855Z,25.20
2022-08-17T15:05:02.492Z,25.39
2022-08-17T15:07:30.517Z,25.23
2022-08-17T15:09:58.769Z,25.24
2022-08-17T15:12:32.293Z,25.29
2022-08-17T15:15:00.866Z,25.22
2022-08-17T15:17:44.206Z,25.48
2022-08-17T15:20:19.719Z,25.14
2022-08-17T15:22:51.233Z,24.98
2022-08-17T15:25:19.442Z,24.94
2022-08-17T15:27:46.288Z,24.33
2022-08-17T15:30:14.910Z,24.54
2022-08-17T15:32:45.844Z,24.38
2022-08-17T15:35:18.970Z,24.25
2022-08-17T15:37:53.936Z,24.54
2022-08-17T15:40:20.566Z,24.57
2022-08-17T15:42:47.192Z,24.58
2022-08-17T15:45:16.554Z,24.57
2022-08-17T15:47:45.598Z,24.58
2022-08-17T15:50:12.341Z,24.67
2022-08-17T15:52:40.652Z,24.72
2022-08-17T15:55:10.867Z,24.74
2022-08-17T15:57:37.735Z,24.91
2022-08-17T16:00:07.675Z,24.71
2022-08-17T16:03:15.265Z,24.65
2022-08-17T16:05:25.072Z,24.27
2022-08-17T16:07:52.832Z,24.32
2022-08-17T16:10:20.136Z,24.50
2022-08-17T16:12:49.367Z,24.42
2022-08-17T16:15:17.305Z,24.67
2022-08-17T16:17:43.953Z,24.43
2022-08-17T16:20:20.456Z,24.23
2022-08-17T16:22:49.894Z,24.28
2022-08-17T16:25:23.395Z,24.01
2022-08-17T16:28:10.072Z,24.09
2022-08-17T16:30:38.270Z,23.89
2022-08-17T16:33:05.465Z,23.93
2022-08-17T16:35:32.047Z,24.03
2022-08-17T16:37:59.061Z,23.80
2022-08-17T16:40:28.629Z,23.82
2022-08-17T16:42:55.973Z,23.88
2022-08-17T16:45:36.417Z,23.68
2022-08-17T16:48:03.596Z,23.84
2022-08-17T16:50:30.326Z,23.63
2022-08-17T16:53:10.997Z,23.54
2022-08-17T16:55:38.367Z,23.44
2022-08-17T16:58:06.938Z,23.23
2022-08-17T17:00:34.838Z,23.29
2022-08-17T17:03:19.538Z,22.95
2022-08-17T17:06:09.232Z,23.03
2022-08-17T17:08:48.543Z,22.74
2022-08-17T17:11:41.752Z,22.79
2022-08-17T17:14:20.486Z,22.61
2022-08-17T17:16:59.380Z,22.61
2022-08-17T17:19:46.665Z,22.63
2022-08-17T17:22:21.284Z,22.45
2022-08-17T17:25:02.508Z,22.56
2022-08-17T17:27:51.088Z,22.30
2022-08-17T17:30:25.195Z,22.38
2022-08-17T17:33:04.654Z,22.27
2022-08-17T17:35:53.624Z,22.25
2022-08-17T17:38:31.580Z,22.19
2022-08-17T17:41:05.576Z,22.10
2022-08-17T17:43:39.708Z,22.24
2022-08-17T17:46:27.293Z,22.04
2022-08-17T17:48:55.230Z,22.11
2022-08-17T17:52:13.423Z,21.95
2022-08-17T17:55:03.254Z,21.91
2022-08-17T17:57:44.424Z,22.01
2022-08-17T18:00:33.224Z,21.79
2022-08-17T18:03:17.766Z,21.91
2022-08-17T18:05:53.619Z,21.87
2022-08-17T18:08:36.228Z,21.69
2022-08-17T18:11:25.166Z,21.79
2022-08-17T18:14:07.019Z,21.57
2022-08-17T18:16:35.032Z,21.69
2022-08-17T18:19:01.846Z,21.62
2022-08-17T18:21:45.865Z,21.44
2022-08-17T18:24:13.566Z,21.58
2022-08-17T18:26:55.429Z,21.41
2022-08-17T18:29:24.769Z,21.31
2022-08-17T18:32:12.844Z,21.45
2022-08-17T18:34:48.481Z,21.31
2022-08-17T18:37:31.266Z,21.19
2022-08-17T18:39:57.999Z,21.31
2022-08-17T18:42:27.625Z,21.37
2022-08-17T18:44:55.699Z,21.01
2022-08-17T18:47:24.152Z,21.00
2022-08-17T18:49:57.573Z,20.95
2022-08-17T18:52:24.283Z,20.81
2022-08-17T18:55:11.139Z,20.87
2022-08-17T18:57:41.786Z,20.75
2022-08-17T19:00:42.118Z,20.73
2022-08-17T19:03:20.698Z,20.68
2022-08-17T19:05:51.746Z,20.61
2022-08-17T19:08:33.524Z,20.68
2022-08-17T19:11:29.127Z,20.48
2022-08-17T19:14:09.317Z,20.42
2022-08-17T19:16:49.539Z,20.28
2022-08-17T19:19:26.832Z,20.35
2022-08-17T19:22:29.356Z,20.33
2022-08-17T19:25:10.959Z,20.21
2022-08-17T19:27:57.624Z,20.30
2022-08-17T19:30:24.728Z,20.22
2022-08-17T19:32:51.520Z,20.27
2022-08-17T19:35:20.439Z,20.39
2022-08-17T19:37:59.755Z,20.25
2022-08-17T19:40:50.953Z,20.14
2022-08-17T19:43:31.876Z,20.18
2022-08-17T19:46:48.530Z,19.99
2022-08-17T19:49:46.751Z,19.99
2022-08-17T19:52:15.967Z,20.00
2022-08-17T19:55:21.203Z,19.75
2022-08-17T19:58:07.607Z,19.81
2022-08-17T20:00:51.267Z,19.79
2022-08-17T20:03:27.256Z,19.45
2022-08-17T20:06:14.036Z,19.29
2022-08-17T20:09:14.317Z,19.38
2022-08-17T20:11:48.770Z,19.50
2022-08-17T20:14:21.015Z,19.43
2022-08-17T20:16:48.224Z,19.31
2022-08-17T20:19:18.053Z,19.44
2022-08-17T20:21:59.999Z,19.59
2022-08-17T20:24:48.248Z,19.65
2022-08-17T20:27:20.880Z,19.30
2022-08-17T20:30:10.983Z,19.24
2022-08-17T20:32:52.032Z,19.31
2022-08-17T20:35:26.001Z,19.36
2022-08-17T20:37:55.305Z,18.93
2022-08-17T20:40:29.278Z,18.96
2022-08-17T20:42:57.259Z,19.09
2022-08-17T20:45:24.381Z,19.09
2022-08-17T20:48:20.067Z,18.93
2022-08-17T20:50:51.492Z,18.80
2022-08-17T20:53:54.655Z,18.88
2022-08-17T20:56:49.163Z,18.90
2022-08-17T20:59:55.196Z,18.94
2022-08-17T21:02:23.632Z,18.83
2022-08-17T21:04:50.276Z,18.52
2022-08-17T21:07:33.156Z,18.61
2022-08-17T21:10:14.891Z,18.64
2022-08-17T21:12:49.572Z,18.77
2022-08-17T21:15:50.576Z,18.54
2022-08-17T21:18:56.729Z,18.39
2022-08-17T21:21:26.192Z,18.49
2022-08-17T21:23:58.938Z,18.45
2022-08-17T21:27:00.380Z,18.38
2022-08-17T21:29:31.170Z,18.11
2022-08-17T21:31:59.635Z,18.09
2022-08-17T21:34:38.846Z,18.20
2022-08-17T21:37:22.183Z,18.22
2022-08-17T21:39:59.019Z,18.21
2022-08-17T21:42:32.164Z,18.29
2022-08-17T21:45:20.944Z,18.05
2022-08-17T21:47:50.786Z,18.11
2022-08-17T21:50:25.142Z,18.22
2022-08-17T21:52:56.764Z,18.33
2022-08-17T21:55:29.767Z,18.36
2022-08-17T21:58:14.086Z,18.29
2022-08-17T22:00:46.014Z,18.08
2022-08-17T22:03:25.998Z,18.10
2022-08-17T22:05:52.721Z,18.19
2022-08-17T22:08:22.359Z,18.19
2022-08-17T22:10:51.284Z,18.07
2022-08-17T22:13:18.002Z,18.02
2022-08-17T22:16:27.732Z,17.57
2022-08-17T22:18:57.929Z,17.61
2022-08-17T22:21:25.226Z,17.79
2022-08-17T22:24:05.118Z,17.80
2022-08-17T22:27:00.248Z,17.89
2022-08-17T22:29:47.023Z,17.88
2022-08-17T22:32:35.018Z,17.47
2022-08-17T22:35:29.374Z,17.39
2022-08-17T22:37:57.642Z,17.51
2022-08-17T22:40:30.601Z,17.59
2022-08-17T22:43:00.493Z,17.73
2022-08-17T22:45:31.209Z,17.72
2022-08-17T22:48:00.451Z,17.56
2022-08-17T22:50:33.580Z,17.48
2022-08-17T22:53:22.991Z,17.50
2022-08-17T22:56:09.992Z,17.52
2022-08-17T22:59:13.417Z,17.57
2022-08-17T23:01:42.950Z,17.67
2022-08-17T23:04:33.403Z,17.82
2022-08-17T23:07:00.099Z,17.93
2022-08-17T23:09:26.833Z,17.72
2022-08-17T23:12:00.506Z,17.82
2022-08-17T23:14:31.534Z,17.94
2022-08-17T23:17:02.707Z,18.02
2022-08-17T23:19:32.656Z,18.10
2022-08-17T23:22:02.785Z,18.22
2022-08-17T23:24:32.643Z,18.30
2022-08-17T23:27:01.109Z,18.19
2022-08-17T23:29:29.292Z,18.14
2022-08-17T23:31:59.986Z,18.23
2022-08-17T23:34:28.153Z,18.30
2022-08-17T23:36:56.133Z,18.36
2022-08-17T23:39:24.674Z,18.33
2022-08-17T23:41:57.376Z,18.30
2022-08-17T23:44:24.036Z,18.30
2022-08-17T23:46:51.828Z,18.27
2022-08-17T23:49:19.141Z,18.17
2022-08-17T23:51:47.916Z,18.03
2022-08-17T23:54:24.521Z,18.02
2022-08-17T23:56:51.257Z,18.00
2022-08-17T23:59:20.787Z,17.97
